Time;durP1;ratioP1;P1;durP2;ratioP2;P2;SDS_P1;SDS_P2;PMS_P1;PMS_P2;Temp;Humidity;BMP_temperature;BMP_pressure;BME280_temperature;BME280_humidity;BME280_pressure;Samples;Min_cycle;Max_cycle;Signal;HPM_P1;HPM_P2
2022/09/26 00:01:43;;;;;;;3.20;1.35;;;;;;;14.07;92.39;98908.09;5115855;28;20035;-67
2022/09/26 00:04:18;;;;;;;1.15;1.10;;;;;;;14.07;91.94;98908.09;5115648;28;20040;-67
2022/09/26 00:06:52;;;;;;;2.22;2.03;;;;;;;14.06;92.23;98906.41;5115184;28;20050;-68
2022/09/26 00:09:22;;;;;;;2.15;1.10;;;;;;;14.06;92.31;98902.09;5115123;28;20067;-67
2022/09/26 00:11:51;;;;;;;;;;;;;;;14.07;92.17;98900.41;5115456;28;20044;-67
2022/09/26 00:14:22;;;;;;;3.05;2.75;;;;;;;14.06;92.06;98901.25;5114932;28;19927;-67
2022/09/26 00:16:51;;;;;;;2.05;1.85;;;;;;;14.04;92.29;98897.91;5114999;28;20096;-67
2022/09/26 00:19:21;;;;;;;1.55;1.38;;;;;;;13.98;92.14;98896.38;5114914;28;20482;-67
2022/09/26 00:21:50;;;;;;;2.30;1.25;;;;;;;14.00;92.14;98892.03;5115225;28;20401;-67
2022/09/26 00:24:19;;;;;;;2.53;1.80;;;;;;;14.00;92.53;98888.63;5114779;28;20036;-66
2022/09/26 00:26:47;;;;;;;2.22;1.77;;;;;;;14.03;92.31;98885.97;5115000;28;20438;-66
2022/09/26 00:29:16;;;;;;;1.05;0.82;;;;;;;14.01;92.28;98883.44;5114729;28;20122;-67
2022/09/26 00:31:47;;;;;;;1.50;1.40;;;;;;;14.00;92.36;98880.91;5115029;28;20063;-67
2022/09/26 00:34:19;;;;;;;1.95;1.52;;;;;;;14.02;92.22;98879.16;5113934;28;20043;-67
2022/09/26 00:36:51;;;;;;;0.77;0.77;;;;;;;14.01;92.58;98872.34;5114597;28;20061;-67
2022/09/26 00:39:21;;;;;;;1.58;0.90;;;;;;;14.02;92.29;98879.16;5113399;28;20051;-67
2022/09/26 00:41:50;;;;;;;0.93;0.82;;;;;;;13.98;92.31;98867.28;5114524;28;20040;-67
2022/09/26 00:44:39;;;;;;;1.63;1.30;;;;;;;14.03;92.36;98870.59;5114505;28;20036;-67
2022/09/26 00:47:26;;;;;;;1.08;1.00;;;;;;;14.02;92.41;98856.91;5114336;28;20046;-66
2022/09/26 00:50:00;;;;;;;1.15;1.05;;;;;;;14.02;92.65;98863.75;5114398;28;20040;-67
2022/09/26 00:52:34;;;;;;;0.57;0.57;;;;;;;14.01;92.21;98856.97;5114380;28;20097;-67
2022/09/26 00:55:06;;;;;;;0.70;0.70;;;;;;;14.02;92.79;98868.88;5114650;28;20047;-67
2022/09/26 00:57:38;;;;;;;1.73;1.45;;;;;;;14.01;92.59;98862.09;5114015;28;20071;-67
2022/09/26 01:00:10;;;;;;;0.55;0.55;;;;;;;14.00;92.69;98861.25;5114575;28;20375;-67
2022/09/26 01:02:39;;;;;;;1.73;1.33;;;;;;;13.99;92.33;98858.69;5113376;28;20094;-67
2022/09/26 01:05:13;;;;;;;1.40;1.30;;;;;;;13.97;92.75;98857.91;5114177;28;20497;-67
2022/09/26 01:07:44;;;;;;;1.25;1.17;;;;;;;13.98;92.58;98846.78;5114286;28;20613;-67
2022/09/26 01:10:14;;;;;;;1.25;1.15;;;;;;;13.97;92.28;98855.34;5113579;28;20043;-67
2022/09/26 01:12:43;;;;;;;1.27;1.13;;;;;;;13.96;92.44;98854.50;5114134;28;20078;-67
2022/09/26 01:15:12;;;;;;;0.98;0.90;;;;;;;13.98;92.45;98851.91;5114360;28;20048;-67
2022/09/26 01:17:44;;;;;;;1.85;0.90;;;;;;;13.99;92.51;98854.41;5114047;28;20507;-66
2022/09/26 01:20:28;;;;;;;1.35;1.02;;;;;;;13.97;92.62;98847.66;5114044;28;20043;-66
2022/09/26 01:23:26;;;;;;;0.63;0.52;;;;;;;13.95;92.69;98840.00;5114001;28;20053;-66
2022/09/26 01:26:24;;;;;;;1.00;0.93;;;;;;;13.95;92.41;98841.72;5112766;28;20063;-67
2022/09/26 01:29:28;;;;;;;2.85;1.30;;;;;;;13.94;92.41;98829.78;5113877;28;20370;-67
2022/09/26 01:34:52;;;;;;;1.73;1.63;;;;;;;13.90;92.72;98817.91;5112718;28;20047;-66
2022/09/26 01:37:31;;;;;;;2.03;1.52;;;;;;;13.89;92.50;98826.50;5112632;28;20104;-66
2022/09/26 01:40:10;;;;;;;1.67;1.23;;;;;;;13.90;92.51;98815.34;5112691;28;20051;-66
2022/09/26 01:42:46;;;;;;;1.55;1.23;;;;;;;13.91;92.57;98812.75;5113268;28;20048;-66
2022/09/26 01:45:18;;;;;;;1.80;1.67;;;;;;;13.90;93.04;98805.94;5112606;28;20055;-66
2022/09/26 01:47:55;;;;;;;2.03;1.85;;;;;;;13.90;92.95;98797.41;5116853;28;20089;-66
2022/09/26 01:50:31;;;;;;;2.38;1.50;;;;;;;13.89;92.99;98798.28;5117940;28;20055;-66
2022/09/26 01:53:04;;;;;;;0.98;0.88;;;;;;;13.89;93.06;98788.03;5118198;28;20040;-66
2022/09/26 01:55:38;;;;;;;1.33;1.02;;;;;;;13.88;92.80;98789.75;5116559;28;20126;-67
2022/09/26 01:58:16;;;;;;;1.00;0.90;;;;;;;13.86;92.86;98780.41;5116687;28;20440;-67
2022/09/26 02:00:48;;;;;;;1.42;1.20;;;;;;;13.90;92.61;98776.88;5117055;28;20397;-67
2022/09/26 02:03:26;;;;;;;1.13;0.88;;;;;;;13.89;92.81;98777.78;5116377;28;20490;-66
2022/09/26 02:05:59;;;;;;;1.42;1.02;;;;;;;13.87;92.77;98777.81;5116375;28;20052;-67
2022/09/26 02:08:33;;;;;;;4.35;2.58;;;;;;;13.90;93.24;98776.88;5116214;28;20044;-66
2022/09/26 02:11:09;;;;;;;0.47;0.47;;;;;;;13.91;92.86;98779.41;5117812;28;20096;-67
2022/09/26 02:13:47;;;;;;;0.60;0.60;;;;;;;13.90;93.10;98780.28;5117555;28;20048;-67
2022/09/26 02:16:22;;;;;;;0.98;0.82;;;;;;;13.91;93.15;98773.44;5116166;28;20047;-66
2022/09/26 02:19:00;;;;;;;8.98;1.23;;;;;;;13.91;92.70;98768.31;5117489;28;20382;-66
2022/09/26 02:21:29;;;;;;;1.00;0.98;;;;;;;13.90;92.91;98771.75;5116381;28;20047;-67
2022/09/26 02:23:57;;;;;;;2.00;1.40;;;;;;;13.91;92.82;98776.00;5117535;28;20062;-67
2022/09/26 02:26:26;;;;;;;1.27;1.17;;;;;;;13.93;93.31;98776.78;5115965;28;20501;-66
2022/09/26 02:28:56;;;;;;;1.42;1.33;;;;;;;13.91;92.81;98763.19;5117248;28;20062;-66
2022/09/26 02:31:28;;;;;;;2.60;1.60;;;;;;;13.92;92.65;98775.09;5117148;28;20048;-66
2022/09/26 02:33:59;;;;;;;1.17;1.08;;;;;;;13.93;92.82;98776.78;5116993;28;20062;-67
2022/09/26 02:36:33;;;;;;;1.20;1.10;;;;;;;13.92;93.03;98773.38;5116030;28;20128;-67
2022/09/26 02:39:05;;;;;;;0.70;0.70;;;;;;;13.93;92.98;98769.94;5116859;28;20093;-67
2022/09/26 02:41:50;;;;;;;0.43;0.43;;;;;;;13.93;93.02;98767.38;5117209;28;20466;-66
2022/09/26 02:44:37;;;;;;;2.70;1.73;;;;;;;13.94;92.63;98763.09;5117134;28;20594;-67
2022/09/26 02:47:35;;;;;;;2.58;2.28;;;;;;;13.91;92.83;98763.19;5115587;28;20127;-66
2022/09/26 02:50:33;;;;;;;0.80;0.70;;;;;;;13.92;93.07;98754.56;5116569;28;20051;-67
2022/09/26 02:53:13;;;;;;;1.05;0.70;;;;;;;13.90;92.81;98757.19;5115804;28;20039;-66
2022/09/26 02:56:02;;;;;;;2.38;1.42;;;;;;;13.92;92.72;98754.56;5116894;28;20065;-67
2022/09/26 02:58:50;;;;;;;1.50;1.40;;;;;;;13.93;92.97;98751.16;5115280;28;20062;-67
2022/09/26 03:01:30;;;;;;;0.93;0.87;;;;;;;13.89;92.64;98741.88;5116776;28;20503;-67
2022/09/26 03:04:09;;;;;;;1.50;0.75;;;;;;;13.89;92.62;98744.44;5116786;28;20048;-66
2022/09/26 03:06:43;;;;;;;0.65;0.65;;;;;;;13.90;93.13;98741.81;5116387;28;20117;-65
2022/09/26 03:09:14;;;;;;;1.63;1.20;;;;;;;13.88;92.79;98742.75;5116547;28;20500;-66
2022/09/26 03:11:44;;;;;;;2.28;1.88;;;;;;;13.89;92.80;98739.31;5115063;28;20044;-66
2022/09/26 03:14:15;;;;;;;1.10;1.00;;;;;;;13.90;92.94;98746.09;5115097;28;20508;-66
2022/09/26 03:16:46;;;;;;;1.17;1.05;;;;;;;13.90;92.80;98743.53;5115032;28;20497;-66
2022/09/26 03:19:22;;;;;;;0.98;0.90;;;;;;;13.92;93.05;98739.19;5114966;28;20126;-66
2022/09/26 03:21:53;;;;;;;2.60;2.13;;;;;;;13.90;92.99;98731.56;5114827;28;20068;-66
2022/09/26 03:24:23;;;;;;;2.50;1.55;;;;;;;13.90;93.14;98721.28;5114861;28;20097;-65
2022/09/26 03:26:53;;;;;;;0.55;0.55;;;;;;;13.90;92.90;98720.44;5116034;28;20054;-66
2022/09/26 03:29:22;;;;;;;1.63;1.30;;;;;;;13.91;92.87;98727.25;5116124;28;20052;-66
2022/09/26 03:31:51;;;;;;;1.33;1.23;;;;;;;13.91;93.30;98727.25;5114699;28;20101;-66
2022/09/26 03:34:21;;;;;;;1.27;1.17;;;;;;;13.92;93.45;98727.22;5115780;28;20580;-66
2022/09/26 03:36:53;;;;;;;1.17;1.08;;;;;;;13.92;93.12;98718.66;5116092;28;20047;-66
2022/09/26 03:39:23;;;;;;;1.73;1.10;;;;;;;13.92;93.27;98718.66;5115858;28;20048;-66
2022/09/26 03:42:07;;;;;;;1.15;1.05;;;;;;;13.91;93.12;98727.25;5116106;28;20086;-66
2022/09/26 03:44:35;;;;;;;0.75;0.75;;;;;;;13.91;92.88;98727.25;5115620;28;20040;-66
2022/09/26 03:47:04;;;;;;;2.08;1.88;;;;;;;13.91;93.30;98717.00;5115521;28;20036;-66
2022/09/26 03:49:39;;;;;;;1.88;1.77;;;;;;;13.92;93.03;98719.50;5115453;27;20486;-66
2022/09/26 03:52:12;;;;;;;0.88;0.82;;;;;;;13.95;93.04;98721.16;5115394;28;20562;-66
2022/09/26 03:54:43;;;;;;;1.50;1.40;;;;;;;13.94;93.33;98727.19;5115755;28;20040;-66
2022/09/26 03:57:12;;;;;;;0.95;0.93;;;;;;;13.93;93.38;98715.22;5115641;28;20367;-67
2022/09/26 03:59:48;;;;;;;1.25;1.15;;;;;;;13.93;93.31;98725.50;5114147;28;20127;-67
2022/09/26 04:02:19;;;;;;;1.35;1.20;;;;;;;13.91;92.77;98715.28;5115530;28;20117;-67
2022/09/26 04:04:56;;;;;;;0.70;0.70;;;;;;;13.92;93.20;98708.41;5115282;28;20051;-66
2022/09/26 04:07:26;;;;;;;1.70;1.58;;;;;;;13.91;93.31;98709.31;5114311;28;20530;-67
2022/09/26 04:09:58;;;;;;;0.93;0.90;;;;;;;13.92;93.00;98704.13;5115014;28;20055;-67
2022/09/26 04:12:27;;;;;;;1.88;1.60;;;;;;;13.94;93.22;98711.78;5115006;28;20047;-67
2022/09/26 04:14:56;;;;;;;1.92;1.10;;;;;;;13.94;92.96;98709.22;5113900;28;20039;-65
2022/09/26 04:17:25;;;;;;;2.35;1.48;;;;;;;13.93;93.29;98704.97;5113792;28;20036;-67
2022/09/26 04:19:54;;;;;;;1.55;1.05;;;;;;;13.92;93.46;98708.41;5113769;28;20036;-67
2022/09/26 04:22:24;;;;;;;0.77;0.75;;;;;;;13.90;93.07;98705.91;5115182;28;20048;-67
2022/09/26 04:24:54;;;;;;;0.80;0.80;;;;;;;13.91;93.15;98701.63;5113887;28;20126;-67
2022/09/26 04:27:27;;;;;;;1.60;1.00;;;;;;;13.91;92.87;98704.19;5115204;28;20147;-66
2022/09/26 04:29:57;;;;;;;0.82;0.82;;;;;;;13.92;93.28;98698.16;5114635;28;20051;-67
2022/09/26 04:32:36;;;;;;;;;;;;;;;13.92;93.47;98703.28;5115460;28;20389;-66
2022/09/26 04:35:26;;;;;;;1.17;0.93;;;;;;;13.92;93.35;98700.72;5114333;28;19920;-67
2022/09/26 04:37:54;;;;;;;0.67;0.67;;;;;;;13.92;93.40;98703.28;5114859;28;20375;-66
2022/09/26 04:40:28;;;;;;;0.67;0.67;;;;;;;13.90;93.48;98699.91;5113745;28;20356;-67
2022/09/26 04:43:04;;;;;;;1.40;1.30;;;;;;;13.87;93.19;98694.88;5114520;28;20047;-67
2022/09/26 04:45:33;;;;;;;1.33;1.10;;;;;;;13.89;92.96;98693.13;5114591;28;20039;-67
2022/09/26 04:48:03;;;;;;;0.65;0.65;;;;;;;13.90;93.25;98697.34;5113236;28;20496;-67
2022/09/26 04:50:55;;;;;;;1.75;1.50;;;;;;;13.91;93.37;98686.22;5114728;28;20067;-67
2022/09/26 04:53:23;;;;;;;0.85;0.82;;;;;;;13.90;93.62;98693.06;5114642;28;20389;-67
2022/09/26 04:56:05;;;;;;;;;;;;;;;13.88;93.58;98688.88;5114956;28;20405;-67
2022/09/26 04:58:34;;;;;;;0.75;0.75;;;;;;;13.86;93.55;98688.09;5113016;28;20373;-67
2022/09/26 05:01:04;;;;;;;1.23;1.00;;;;;;;13.87;93.26;98689.75;5113061;28;20036;-67
2022/09/26 05:03:51;;;;;;;0.70;0.70;;;;;;;13.87;93.18;98689.75;5114456;28;20611;-66
2022/09/26 05:06:20;;;;;;;1.13;1.03;;;;;;;13.87;93.51;98695.72;5113161;28;20385;-67
2022/09/26 05:08:49;;;;;;;1.13;0.85;;;;;;;13.85;93.31;98692.38;5112852;28;20501;-66
2022/09/26 05:11:25;;;;;;;3.30;2.33;;;;;;;13.85;93.22;98686.38;5114127;28;20043;-66
2022/09/26 05:13:54;;;;;;;0.75;0.75;;;;;;;13.85;93.39;98691.53;5112916;28;20048;-66
2022/09/26 05:16:27;;;;;;;0.47;0.47;;;;;;;13.86;93.30;98695.78;5113162;28;20049;-67
2022/09/26 05:18:59;;;;;;;2.22;0.88;;;;;;;13.89;93.41;98693.13;5114054;28;20055;-67
2022/09/26 05:21:28;;;;;;;0.75;0.75;;;;;;;13.90;93.69;98699.91;5112267;28;20044;-66
2022/09/26 05:26:43;;;;;;;1.40;1.20;;;;;;;13.88;93.57;98691.44;5113900;28;20040;-66
2022/09/26 05:29:12;;;;;;;0.77;0.73;;;;;;;13.88;93.45;98694.84;5112613;28;20047;-66
2022/09/26 05:32:03;;;;;;;1.83;1.58;;;;;;;13.89;93.58;98688.00;5113000;28;20444;-66
2022/09/26 05:34:36;;;;;;;2.50;2.20;;;;;;;13.89;93.52;98683.69;5113895;28;20585;-66
2022/09/26 05:37:06;;;;;;;2.05;0.73;;;;;;;13.90;93.91;98684.53;5112897;28;20083;-66
2022/09/26 05:42:16;;;;;;;1.17;1.08;;;;;;;13.90;93.51;98684.53;5112918;28;20481;-66
2022/09/26 05:44:44;;;;;;;0.70;0.70;;;;;;;13.88;93.46;98681.19;5113765;28;20052;-66
2022/09/26 05:47:14;;;;;;;4.25;1.60;;;;;;;13.85;93.88;98674.41;5113701;28;20064;-66
2022/09/26 05:49:43;;;;;;;1.13;0.85;;;;;;;13.86;93.67;98677.81;5112400;28;20097;-67
2022/09/26 05:52:15;;;;;;;1.15;1.02;;;;;;;13.88;93.86;98670.91;5114082;28;20070;-67
2022/09/26 05:54:44;;;;;;;2.13;1.93;;;;;;;13.91;94.20;98675.97;5112534;28;20071;-67
2022/09/26 05:57:33;;;;;;;0.70;0.70;;;;;;;13.93;93.75;98676.75;5113322;28;20092;-67
2022/09/26 06:00:02;;;;;;;2.40;1.35;;;;;;;13.93;94.15;98676.75;5112710;28;20063;-66
2022/09/26 06:02:42;;;;;;;1.42;1.33;;;;;;;13.92;93.96;98677.63;5113914;28;20506;-65
2022/09/26 06:05:25;;;;;;;3.70;2.30;;;;;;;13.92;94.05;98685.31;5112729;28;20104;-66
2022/09/26 06:08:07;;;;;;;1.10;1.00;;;;;;;13.93;94.12;98684.44;5113446;28;20052;-66
2022/09/26 06:10:45;;;;;;;2.05;1.65;;;;;;;13.92;94.32;98675.91;5113780;28;20501;-65
2022/09/26 06:13:15;;;;;;;2.92;1.70;;;;;;;13.91;94.07;98678.53;5112585;28;20044;-65
2022/09/26 06:15:52;;;;;;;1.52;1.35;;;;;;;13.94;94.34;98678.44;5112692;28;20078;-66
2022/09/26 06:18:21;;;;;;;1.70;1.55;;;;;;;13.96;94.44;98686.94;5112202;28;20512;-66
2022/09/26 06:20:50;;;;;;;1.35;0.93;;;;;;;13.96;93.96;98684.38;5113380;28;20036;-66
2022/09/26 06:23:19;;;;;;;1.25;0.85;;;;;;;14.01;94.47;98685.06;5107562;28;20044;-66
2022/09/26 06:25:48;;;;;;;1.87;0.90;;;;;;;14.04;94.27;98685.78;5110230;28;20037;-66
2022/09/26 06:28:20;;;;;;;1.15;1.05;;;;;;;14.06;94.15;98675.47;5113300;28;20758;-66
2022/09/26 06:30:50;;;;;;;1.73;1.50;;;;;;;14.09;94.46;98685.66;5113468;28;20116;-66
2022/09/26 06:33:41;;;;;;;0.57;0.57;;;;;;;14.11;94.09;98689.00;5115718;28;20071;-65
2022/09/26 06:36:28;;;;;;;0.60;0.60;;;;;;;14.14;94.56;98694.06;5116971;28;20120;-65
2022/09/26 06:38:57;;;;;;;1.80;1.35;;;;;;;14.16;94.62;98691.47;5114609;28;20039;-66
2022/09/26 06:41:34;;;;;;;1.15;1.05;;;;;;;14.19;94.17;98697.31;5098862;28;20047;-65
2022/09/26 06:44:13;;;;;;;1.20;0.85;;;;;;;14.23;94.29;98698.88;5115366;28;20047;-66
2022/09/26 06:46:51;;;;;;;;;;;;;;;14.24;94.29;98695.44;5115970;28;20068;-66
2022/09/26 06:49:29;;;;;;;1.05;1.02;;;;;;;14.26;94.11;98693.66;5114980;28;19957;-66
2022/09/26 06:52:02;;;;;;;1.42;1.17;;;;;;;14.30;94.30;98691.84;5115142;28;20052;-67
2022/09/26 06:54:31;;;;;;;0.93;0.93;;;;;;;14.35;94.15;98690.03;5115382;28;20036;-66
2022/09/26 06:57:00;;;;;;;1.10;0.85;;;;;;;14.37;94.66;98691.63;5115214;28;20074;-65
2022/09/26 06:59:30;;;;;;;7.25;2.08;;;;;;;14.37;94.60;98686.50;5115045;28;20051;-65
2022/09/26 07:02:11;;;;;;;0.68;0.50;;;;;;;14.35;94.56;98690.03;5116419;28;20044;-65
2022/09/26 07:05:01;;;;;;;0.50;0.50;;;;;;;14.31;94.19;98685.84;5114935;28;20075;-65
2022/09/26 07:07:42;;;;;;;0.77;0.77;;;;;;;14.21;94.54;98682.69;5116733;28;20048;-65
2022/09/26 07:10:19;;;;;;;0.70;0.70;;;;;;;14.21;94.68;98685.28;5116523;28;20230;-65
2022/09/26 07:13:02;;;;;;;1.08;0.98;;;;;;;14.20;94.04;98688.75;5116323;28;20051;-66
2022/09/26 07:15:33;;;;;;;0.55;0.52;;;;;;;14.25;94.53;98683.47;5098190;28;20145;-65
2022/09/26 07:18:10;;;;;;;0.55;0.50;;;;;;;14.27;94.46;98692.78;5116424;28;20056;-66
2022/09/26 07:20:54;;;;;;;0.47;0.47;;;;;;;14.27;94.58;98694.50;5116343;28;20436;-66
2022/09/26 07:23:46;;;;;;;0.85;0.85;;;;;;;14.24;94.78;98682.63;5116276;28;20055;-66
2022/09/26 07:26:17;;;;;;;0.90;0.90;;;;;;;14.27;94.82;98690.22;5116158;28;20126;-65
2022/09/26 07:28:46;;;;;;;1.05;0.95;;;;;;;14.25;94.64;98696.28;5114591;28;20036;-65
2022/09/26 07:31:25;;;;;;;0.68;0.68;;;;;;;14.24;94.61;98700.59;5115650;28;20047;-65
2022/09/26 07:34:14;;;;;;;0.60;0.60;;;;;;;14.22;94.72;98699.78;5115707;28;20043;-65
2022/09/26 07:36:46;;;;;;;1.10;1.05;;;;;;;14.22;94.93;98702.38;5114387;28;20044;-65
2022/09/26 07:39:16;;;;;;;0.40;0.40;;;;;;;14.23;95.04;98701.47;5114439;28;20056;-65
2022/09/26 07:41:45;;;;;;;1.10;1.02;;;;;;;14.22;94.94;98704.94;5102261;28;20036;-65
2022/09/26 07:44:14;;;;;;;1.05;0.95;;;;;;;14.24;95.00;98699.75;5093851;28;20489;-64
2022/09/26 07:52:44;;;;;;;1.13;1.02;;;;;;;14.33;95.23;98704.59;5094710;28;20047;-66
2022/09/26 07:56:04;;;;;;;1.20;0.90;;;;;;;14.39;95.04;98700.13;5083626;28;20524;-66
2022/09/26 07:58:45;;;;;;;1.30;1.07;;;;;;;14.43;95.05;98696.56;5073067;28;20064;-66
2022/09/26 08:01:30;;;;;;;1.83;1.25;;;;;;;14.47;95.52;98703.28;5094777;28;20048;-65
2022/09/26 08:04:01;;;;;;;0.80;0.77;;;;;;;14.56;95.34;98697.03;5094828;28;20059;-66
2022/09/26 08:06:35;;;;;;;1.23;1.13;;;;;;;14.57;95.01;98694.41;5094746;28;20048;-65
2022/09/26 08:09:04;;;;;;;0.80;0.80;;;;;;;14.65;95.58;98697.56;5093570;28;20036;-65
2022/09/26 08:11:44;;;;;;;0.30;0.30;;;;;;;14.67;95.80;98711.19;5095011;28;20066;-66
2022/09/26 08:14:36;;;;;;;0.75;0.73;;;;;;;14.70;95.39;98705.97;5084245;28;20486;-66
2022/09/26 08:17:16;;;;;;;0.60;0.60;;;;;;;14.76;95.33;98705.75;5094746;28;20054;-66
2022/09/26 08:19:47;;;;;;;0.55;0.55;;;;;;;14.85;95.01;98708.91;5093355;28;20089;-66
2022/09/26 08:22:16;;;;;;;0.50;0.50;;;;;;;14.91;95.55;98703.56;5094850;28;20078;-66
2022/09/26 08:24:50;;;;;;;0.52;0.52;;;;;;;14.98;94.93;98705.03;5093172;28;20117;-66
2022/09/26 08:27:32;;;;;;;;;;;;;;;15.00;95.25;98704.06;5094868;28;20040;-66
2022/09/26 08:30:03;;;;;;;1.48;0.73;;;;;;;15.04;95.23;98699.69;5093177;28;19966;-66
2022/09/26 08:32:32;;;;;;;0.70;0.70;;;;;;;15.10;94.69;98702.03;5094166;28;20048;-66
2022/09/26 08:35:03;;;;;;;0.80;0.73;;;;;;;15.11;94.55;98706.28;5093187;28;20507;-65
2022/09/26 08:38:01;;;;;;;1.70;1.13;;;;;;;15.08;94.36;98714.09;5077991;28;20048;-66
2022/09/26 08:40:53;;;;;;;0.82;0.70;;;;;;;15.15;94.20;98710.44;5094247;28;20123;-65
2022/09/26 08:43:45;;;;;;;0.70;0.70;;;;;;;15.20;94.15;98716.25;5094438;28;20428;-65
2022/09/26 08:46:42;;;;;;;0.60;0.60;;;;;;;15.30;94.27;98717.59;5094361;28;20097;-65
2022/09/26 08:49:47;;;;;;;0.43;0.43;;;;;;;15.42;94.26;98717.19;5092529;28;20060;-65
2022/09/26 08:52:43;;;;;;;0.95;0.93;;;;;;;15.54;93.99;98711.63;5102395;28;20051;-64
2022/09/26 08:55:16;;;;;;;0.65;0.50;;;;;;;15.54;93.73;98705.63;5091600;28;20055;-65
2022/09/26 08:57:49;;;;;;;0.60;0.60;;;;;;;15.66;93.27;98711.19;5099595;28;20067;-64
2022/09/26 09:00:23;;;;;;;1.42;0.82;;;;;;;15.79;93.41;98714.97;5113223;28;20039;-65
2022/09/26 09:03:06;;;;;;;1.92;1.45;;;;;;;15.86;92.54;98711.25;5112851;28;20046;-64
2022/09/26 09:05:39;;;;;;;1.10;1.00;;;;;;;15.89;92.07;98713.72;5093346;28;20645;-68
2022/09/26 09:08:20;;;;;;;1.33;1.00;;;;;;;15.91;91.57;98714.50;5102724;28;20340;-65
2022/09/26 09:11:09;;;;;;;0.88;0.82;;;;;;;15.92;91.17;98710.19;5113683;28;20552;-66
2022/09/26 09:13:52;;;;;;;0.82;0.73;;;;;;;15.95;90.90;98705.78;5096691;28;20409;-66
2022/09/26 09:16:58;;;;;;;1.52;1.35;;;;;;;16.02;90.63;98704.66;5101030;28;20062;-65
2022/09/26 09:19:47;;;;;;;0.68;0.68;;;;;;;16.07;90.12;98704.47;5101867;28;20050;-67
2022/09/26 09:22:45;;;;;;;0.75;0.75;;;;;;;16.02;89.58;98704.66;5104609;28;20481;-66
2022/09/26 09:25:27;;;;;;;1.52;1.42;;;;;;;16.07;89.17;98702.75;5112756;28;20100;-66
2022/09/26 09:28:12;;;;;;;0.77;0.77;;;;;;;16.16;89.03;98705.84;5111529;28;20035;-66
2022/09/26 09:30:43;;;;;;;1.20;1.02;;;;;;;16.24;88.47;98708.97;5113647;28;20109;-66
2022/09/26 09:33:27;;;;;;;0.50;0.50;;;;;;;16.39;88.46;98709.19;5113966;28;20043;-66
2022/09/26 09:36:24;;;;;;;0.50;0.50;;;;;;;16.49;87.82;98704.50;5096255;28;20040;-66
2022/09/26 09:39:07;;;;;;;0.40;0.40;;;;;;;16.48;87.23;98692.56;5093293;28;20044;-66
2022/09/26 09:41:57;;;;;;;0.47;0.45;;;;;;;16.66;85.77;98702.97;5092412;28;20071;-66
2022/09/26 09:44:36;;;;;;;0.30;0.30;;;;;;;16.95;84.57;98696.59;5092511;28;20086;-66
2022/09/26 09:47:13;;;;;;;0.40;0.40;;;;;;;17.20;83.88;98704.97;5093276;28;20048;-66
2022/09/26 09:49:42;;;;;;;0.50;0.50;;;;;;;17.20;82.89;98699.00;5102029;28;20146;-66
2022/09/26 09:52:29;;;;;;;0.50;0.50;;;;;;;17.28;82.53;98692.59;5112620;28;20130;-66
2022/09/26 09:55:07;;;;;;;0.88;0.85;;;;;;;17.32;82.21;98703.63;5112665;28;20043;-65
2022/09/26 09:57:52;;;;;;;0.50;0.50;;;;;;;17.22;81.59;98697.16;5112501;28;20130;-66
2022/09/26 10:00:22;;;;;;;0.40;0.40;;;;;;;17.10;81.84;98697.69;5109060;28;20073;-66
2022/09/26 10:03:11;;;;;;;0.40;0.40;;;;;;;17.06;81.27;98696.97;5093351;28;20041;-66
2022/09/26 10:05:44;;;;;;;0.75;0.70;;;;;;;17.11;80.88;98689.03;5102779;28;20048;-65
2022/09/26 10:08:30;;;;;;;0.77;0.60;;;;;;;17.28;80.53;98697.75;5096672;28;20048;-66
2022/09/26 10:11:13;;;;;;;0.50;0.50;;;;;;;17.53;79.89;98684.63;5096994;28;20055;-66
2022/09/26 10:13:56;;;;;;;0.45;0.45;;;;;;;17.53;79.00;98692.38;5107952;28;20044;-67
2022/09/26 10:16:39;;;;;;;0.40;0.40;;;;;;;17.49;78.15;98695.13;5112354;28;20039;-66
2022/09/26 10:19:12;;;;;;;0.43;0.43;;;;;;;17.49;77.88;98689.97;5117516;28;20079;-66
2022/09/26 10:21:47;;;;;;;0.50;0.50;;;;;;;17.54;78.10;98688.88;5116195;28;20417;-66
2022/09/26 10:24:39;;;;;;;0.60;0.60;;;;;;;17.58;77.86;98684.44;5116333;28;20154;-66
2022/09/26 10:27:17;;;;;;;0.40;0.40;;;;;;;17.71;77.88;98680.38;5117094;28;20054;-65
2022/09/26 10:29:55;;;;;;;0.40;0.40;;;;;;;17.79;77.93;98678.28;5116183;28;20147;-65
2022/09/26 10:32:24;;;;;;;0.40;0.40;;;;;;;17.83;77.47;98679.81;5117040;28;20493;-65
2022/09/26 10:35:17;;;;;;;0.47;0.47;;;;;;;18.15;77.33;98679.16;5111849;28;20055;-66
2022/09/26 10:37:57;;;;;;;0.40;0.40;;;;;;;18.39;76.80;98679.72;5115520;28;20043;-66
2022/09/26 10:43:20;;;;;;;0.40;0.40;;;;;;;18.46;75.86;98675.97;5115724;28;20031;-67
2022/09/26 10:45:56;;;;;;;0.45;0.45;;;;;;;18.43;75.37;98676.91;5111257;28;20131;-67
2022/09/26 10:48:46;;;;;;;1.55;1.35;;;;;;;18.32;74.73;98668.88;5096519;28;20044;-67
2022/09/26 10:51:31;;;;;;;0.70;0.70;;;;;;;18.22;74.96;98677.97;5096377;28;20452;-67
2022/09/26 10:54:06;;;;;;;0.45;0.45;;;;;;;18.17;75.03;98679.91;5109633;28;20046;-68
2022/09/26 10:56:44;;;;;;;0.60;0.60;;;;;;;18.19;75.02;98672.94;5115351;28;20085;-67
2022/09/26 10:59:16;;;;;;;0.52;0.50;;;;;;;18.18;75.28;98671.28;5115230;28;20058;-68
2022/09/26 11:01:50;;;;;;;1.55;1.30;;;;;;;18.20;75.32;98674.63;5115412;28;20101;-68
2022/09/26 11:07:23;;;;;;;0.52;0.52;;;;;;;18.13;74.84;98668.06;5109324;28;20055;-69
2022/09/26 11:10:13;;;;;;;0.52;0.50;;;;;;;18.15;74.92;98666.25;5098204;28;20044;-68
2022/09/26 11:12:58;;;;;;;0.60;0.60;;;;;;;18.15;74.91;98679.16;5094533;28;20040;-68
2022/09/26 11:15:28;;;;;;;0.50;0.50;;;;;;;18.09;74.72;98676.88;5094721;28;20048;-67
2022/09/26 11:17:58;;;;;;;0.77;0.77;;;;;;;18.02;75.05;98676.31;5094300;28;20562;-67
2022/09/26 11:20:43;;;;;;;0.70;0.70;;;;;;;17.95;75.28;98661.16;5094426;28;20063;-68
2022/09/26 11:23:33;;;;;;;1.10;1.00;;;;;;;17.90;75.77;98668.31;5094464;28;20051;-67
2022/09/26 11:26:16;;;;;;;0.65;0.65;;;;;;;17.81;75.90;98666.16;5095941;28;20102;-68
2022/09/26 11:28:51;;;;;;;0.98;0.93;;;;;;;17.71;76.18;98668.31;5094703;28;20400;-67
2022/09/26 11:31:28;;;;;;;0.45;0.45;;;;;;;17.69;76.14;98677.03;5103612;28;20117;-67
2022/09/26 11:34:25;;;;;;;0.40;0.40;;;;;;;17.62;76.39;98665.31;5115692;28;20135;-67
2022/09/26 11:37:20;;;;;;;0.38;0.38;;;;;;;17.61;76.76;98668.81;5115856;28;20130;-68
2022/09/26 11:40:12;;;;;;;0.47;0.47;;;;;;;17.61;77.18;98663.66;5116145;28;20392;-67
2022/09/26 11:42:59;;;;;;;0.45;0.45;;;;;;;17.62;77.16;98662.72;5115786;28;20056;-68
2022/09/26 11:45:43;;;;;;;0.52;0.52;;;;;;;17.61;76.97;98656.72;5114733;28;20040;-68
2022/09/26 11:49:04;;;;;;;1.50;0.93;;;;;;;17.70;76.76;98669.22;5114711;28;20431;-68
2022/09/26 11:52:13;;;;;;;0.77;0.77;;;;;;;18.27;76.51;98660.50;5112104;28;20048;-68
2022/09/26 11:54:57;;;;;;;0.50;0.50;;;;;;;18.46;75.41;98645.81;5116047;27;20162;-67
2022/09/26 11:57:37;;;;;;;1.05;0.70;;;;;;;18.68;74.33;98643.00;5115164;28;20052;-69
2022/09/26 12:00:23;;;;;;;0.65;0.65;;;;;;;19.00;73.12;98638.78;5110733;28;20060;-68
2022/09/26 12:03:18;;;;;;;0.50;0.50;;;;;;;19.24;71.17;98634.94;5105274;28;20047;-68
2022/09/26 12:05:54;;;;;;;0.60;0.60;;;;;;;19.54;70.08;98630.72;5115078;27;20051;-67
2022/09/26 12:08:39;;;;;;;1.45;0.82;;;;;;;19.78;69.13;98631.16;5115063;28;20044;-66
2022/09/26 12:11:18;;;;;;;0.50;0.50;;;;;;;20.07;68.13;98622.59;5115136;28;20044;-67
2022/09/26 12:13:53;;;;;;;0.85;0.70;;;;;;;20.38;67.86;98629.50;5115102;28;20043;-67
2022/09/26 12:16:34;;;;;;;2.38;1.00;;;;;;;20.38;66.54;98632.94;5115347;28;20477;-68
2022/09/26 12:19:15;;;;;;;0.77;0.60;;;;;;;20.43;64.68;98627.50;5114875;28;20043;-67
2022/09/26 12:24:46;;;;;;;0.50;0.50;;;;;;;20.27;63.56;98619.78;5112688;28;20093;-68
2022/09/26 12:27:24;;;;;;;0.93;0.85;;;;;;;20.15;63.75;98628.22;5114361;28;20534;-67
2022/09/26 12:30:06;;;;;;;1.17;1.10;;;;;;;20.08;64.14;98629.47;5104583;28;20047;-67
2022/09/26 12:32:56;;;;;;;0.60;0.60;;;;;;;20.04;63.77;98623.63;5101239;28;20052;-67
2022/09/26 12:35:41;;;;;;;0.52;0.52;;;;;;;19.99;63.86;98627.38;5104932;28;20047;-68
2022/09/26 12:38:35;;;;;;;0.70;0.70;;;;;;;20.21;63.54;98625.25;5106307;28;20118;-67
2022/09/26 12:41:14;;;;;;;1.85;1.17;;;;;;;20.35;62.70;98616.72;5114766;28;20047;-68
2022/09/26 12:44:06;;;;;;;0.80;0.80;;;;;;;20.33;61.96;98618.56;5114610;28;20044;-68
2022/09/26 12:46:51;;;;;;;2.33;1.02;;;;;;;20.43;61.72;98609.34;5108853;28;20452;-67